createdAt,value
2022-09-28T00:00:38.092Z,97817.13
2022-09-28T00:03:04.979Z,97805.75
2022-09-28T00:05:31.918Z,97802.84
2022-09-28T00:07:58.618Z,97793.72
2022-09-28T00:10:25.463Z,97790.28
2022-09-28T00:12:53.592Z,97788.16
2022-09-28T00:15:22.436Z,97784.88
2022-09-28T00:17:49.223Z,97778.88
2022-09-28T00:20:16.841Z,97768.63
2022-09-28T00:22:43.650Z,97765.50
2022-09-28T00:25:10.985Z,97757.56
2022-09-28T00:27:37.669Z,97751.69
2022-09-28T00:30:05.950Z,97749.91
2022-09-28T00:32:34.007Z,97745.00
2022-09-28T00:35:00.764Z,97733.47
2022-09-28T00:37:27.681Z,97733.47
2022-09-28T00:39:54.888Z,97722.41
2022-09-28T00:42:25.295Z,97730.59
2022-09-28T00:44:53.150Z,97729.31
2022-09-28T00:47:33.793Z,97737.78
2022-09-28T00:50:11.791Z,97730.25
2022-09-28T00:52:47.262Z,97722.78
2022-09-28T00:55:19.534Z,97714.97
2022-09-28T00:57:55.162Z,97712.03
2022-09-28T01:00:22.414Z,97695.09
2022-09-28T01:02:49.319Z,97696.06
2022-09-28T01:05:21.230Z,97691.97
2022-09-28T01:07:48.896Z,97677.72
2022-09-28T01:10:17.163Z,97672.50
2022-09-28T01:12:43.966Z,97671.69
2022-09-28T01:15:11.149Z,97661.28
2022-09-28T01:17:57.751Z,97661.28
2022-09-28T01:20:52.266Z,97652.22
2022-09-28T01:23:53.763Z,97658.06
2022-09-28T01:26:43.298Z,97642.53
2022-09-28T01:29:23.358Z,97643.78
2022-09-28T01:32:00.587Z,97629.97
2022-09-28T01:34:38.951Z,97631.63
2022-09-28T01:37:14.325Z,97629.66
2022-09-28T01:39:48.949Z,97618.75
2022-09-28T01:42:24.542Z,97618.75
2022-09-28T01:44:56.735Z,97611.94
2022-09-28T01:47:27.161Z,97608.34
2022-09-28T01:50:04.864Z,97596.69
2022-09-28T01:52:39.858Z,97591.47
2022-09-28T01:55:17.311Z,97581.22
2022-09-28T01:57:54.952Z,97582.69
2022-09-28T02:00:26.318Z,97574.91
2022-09-28T02:03:02.814Z,97574.91
2022-09-28T02:05:52.318Z,97570.16
2022-09-28T02:08:29.785Z,97553.09
2022-09-28T02:11:05.803Z,97544.97
2022-09-28T02:13:40.501Z,97545.63
2022-09-28T02:16:19.663Z,97547.91
2022-09-28T02:18:50.766Z,97539.97
2022-09-28T02:21:26.253Z,97543.06
2022-09-28T02:23:58.803Z,97536.88
2022-09-28T02:26:32.198Z,97526.19
2022-09-28T02:29:00.668Z,97531.03
2022-09-28T02:31:28.244Z,97522.94
2022-09-28T02:33:58.567Z,97512.84
2022-09-28T02:36:27.305Z,97523.78
2022-09-28T02:38:55.091Z,97528.34
2022-09-28T02:41:48.369Z,97514.53
2022-09-28T02:44:43.245Z,97529.69
2022-09-28T02:47:31.346Z,97543.66
2022-09-28T02:50:15.561Z,97546.47
2022-09-28T02:53:16.467Z,97544.84
2022-09-28T02:56:09.943Z,97527.88
2022-09-28T02:58:55.120Z,97542.84
2022-09-28T03:01:36.642Z,97547.59
2022-09-28T03:04:18.624Z,97544.66
2022-09-28T03:06:55.852Z,97549.38
2022-09-28T03:09:28.871Z,97556.03
2022-09-28T03:12:03.364Z,97554.41
2022-09-28T03:14:30.374Z,97553.78
2022-09-28T03:16:59.222Z,97549.38
2022-09-28T03:19:32.405Z,97538.63
2022-09-28T03:22:00.518Z,97543.75
2022-09-28T03:24:27.421Z,97539.59
2022-09-28T03:26:54.368Z,97543.50
2022-09-28T03:29:22.806Z,97547.41
2022-09-28T03:31:55.456Z,97553.75
2022-09-28T03:34:24.037Z,97560.28
2022-09-28T03:36:51.513Z,97548.56
2022-09-28T03:39:18.385Z,97550.00
2022-09-28T03:41:45.371Z,97550.50
2022-09-28T03:44:12.301Z,97534.09
2022-09-28T03:46:39.657Z,97530.50
2022-09-28T03:49:09.310Z,97533.75
2022-09-28T03:51:37.450Z,97536.03
2022-09-28T03:54:05.293Z,97541.06
2022-09-28T03:56:32.174Z,97537.97
2022-09-28T03:58:59.039Z,97543.66
2022-09-28T04:01:26.568Z,97552.66
2022-09-28T04:03:54.573Z,97559.47
2022-09-28T04:06:21.609Z,97546.31
2022-09-28T04:08:50.130Z,97549.22
2022-09-28T04:11:17.881Z,97547.41
2022-09-28T04:13:48.911Z,97540.59
2022-09-28T04:16:16.565Z,97540.25
2022-09-28T04:18:48.783Z,97542.69
2022-09-28T04:21:44.781Z,97544.50
2022-09-28T04:24:15.266Z,97533.09
2022-09-28T04:26:42.448Z,97533.41
2022-09-28T04:29:11.693Z,97540.56
2022-09-28T04:31:42.976Z,97544.13
2022-09-28T04:34:10.522Z,97545.22
2022-09-28T04:36:37.435Z,97536.66
2022-09-28T04:39:04.363Z,97540.81
2022-09-28T04:41:34.398Z,97537.91
2022-09-28T04:44:02.242Z,97536.94
2022-09-28T04:46:29.397Z,97540.50
2022-09-28T04:49:22.614Z,97544.91
2022-09-28T04:51:52.887Z,97532.56
2022-09-28T04:54:19.797Z,97539.19
2022-09-28T04:56:48.751Z,97539.03
2022-09-28T04:59:15.687Z,97545.03
2022-09-28T05:01:44.329Z,97541.94
2022-09-28T05:04:30.093Z,97544.69
2022-09-28T05:07:20.054Z,97537.53
2022-09-28T05:09:47.122Z,97539.97
2022-09-28T05:12:16.543Z,97548.13
2022-09-28T05:14:43.735Z,97560.97
2022-09-28T05:17:10.878Z,97565.53
2022-09-28T05:19:56.213Z,97577.56
2022-09-28T05:22:23.234Z,97565.28
2022-09-28T05:24:56.323Z,97565.63
2022-09-28T05:27:25.620Z,97564.78
2022-09-28T05:30:00.830Z,97562.38
2022-09-28T05:32:30.517Z,97571.31
2022-09-28T05:35:17.913Z,97566.28
2022-09-28T05:37:46.937Z,97567.59
2022-09-28T05:40:14.335Z,97568.91
2022-09-28T05:42:42.842Z,97560.59
2022-09-28T05:45:10.552Z,97561.75
2022-09-28T05:47:42.208Z,97563.06
2022-09-28T05:50:12.735Z,97545.47
2022-09-28T05:52:40.195Z,97564.53
2022-09-28T05:55:09.501Z,97570.22
2022-09-28T05:57:36.436Z,97576.75
2022-09-28T06:00:07.132Z,97578.03
2022-09-28T06:02:39.830Z,97589.75
2022-09-28T06:05:09.494Z,97587.81
2022-09-28T06:07:36.395Z,97576.09
2022-09-28T06:10:04.540Z,97587.66
2022-09-28T06:12:39.417Z,97600.81
2022-09-28T06:15:14.667Z,97604.09
2022-09-28T06:17:41.493Z,97608.31
2022-09-28T06:20:35.458Z,97607.84
2022-09-28T06:23:16.115Z,97607.53
2022-09-28T06:25:43.339Z,97608.00
2022-09-28T06:28:12.727Z,97610.63
2022-09-28T06:30:43.229Z,97608.66
2022-09-28T06:33:14.986Z,97609.13
2022-09-28T06:35:42.380Z,97622.66
2022-09-28T06:38:09.900Z,97613.53
2022-09-28T06:40:38.708Z,97623.97
2022-09-28T06:43:10.599Z,97628.69
2022-09-28T06:45:57.897Z,97627.22
2022-09-28T06:48:30.255Z,97636.50
2022-09-28T06:50:57.429Z,97624.44
2022-09-28T06:53:32.188Z,97637.97
2022-09-28T06:56:02.426Z,97638.13
2022-09-28T06:58:30.059Z,97638.31
2022-09-28T07:01:00.959Z,97638.31
2022-09-28T07:03:30.593Z,97649.06
2022-09-28T07:06:14.574Z,97646.75
2022-09-28T07:09:29.628Z,97653.28
2022-09-28T07:12:18.155Z,97653.25
2022-09-28T07:14:53.419Z,97660.75
2022-09-28T07:17:22.478Z,97658.78
2022-09-28T07:19:49.635Z,97660.56
2022-09-28T07:22:19.399Z,97671.31
2022-09-28T07:24:48.642Z,97672.63
2022-09-28T07:27:34.807Z,97670.31
2022-09-28T07:30:31.501Z,97690.25
2022-09-28T07:33:07.185Z,97685.25
2022-09-28T07:35:55.889Z,97686.41
2022-09-28T07:38:27.523Z,97694.13
2022-09-28T07:40:56.887Z,97696.56
2022-09-28T07:43:23.983Z,97701.28
2022-09-28T07:45:54.301Z,97709.13
2022-09-28T07:48:23.331Z,97710.97
2022-09-28T07:51:06.700Z,97718.47
2022-09-28T07:53:38.742Z,97718.75
2022-09-28T07:56:15.784Z,97718.28
2022-09-28T07:58:51.385Z,97719.25
2022-09-28T08:01:26.967Z,97729.69
2022-09-28T08:03:55.838Z,97728.75
2022-09-28T08:06:31.400Z,97730.88
2022-09-28T08:09:01.814Z,97732.69
2022-09-28T08:12:05.309Z,97735.53
2022-09-28T08:14:59.567Z,97746.34
2022-09-28T08:17:49.158Z,97752.31
2022-09-28T08:20:19.756Z,97754.69
2022-09-28T08:22:52.907Z,97748.19
2022-09-28T08:25:20.244Z,97752.19
2022-09-28T08:27:47.337Z,97742.47
2022-09-28T08:30:15.148Z,97747.38
2022-09-28T08:33:03.007Z,97751.59
2022-09-28T08:35:58.055Z,97751.91
2022-09-28T08:38:53.225Z,97747.84
2022-09-28T08:41:48.583Z,97747.66
2022-09-28T08:44:53.779Z,97757.25
2022-09-28T08:47:53.354Z,97761.94
2022-09-28T08:50:39.741Z,97762.19
2022-09-28T08:53:37.660Z,97765.78
2022-09-28T08:56:39.984Z,97766.56
2022-09-28T08:59:16.193Z,97771.44
2022-09-28T09:01:55.326Z,97777.94
2022-09-28T09:04:25.294Z,97774.53
2022-09-28T09:07:30.600Z,97787.41
2022-09-28T09:10:32.909Z,97788.25
2022-09-28T09:13:20.345Z,97784.81
2022-09-28T09:15:57.889Z,97786.78
2022-09-28T09:18:48.243Z,97793.22
2022-09-28T09:21:41.460Z,97789.31
2022-09-28T09:24:26.062Z,97785.25
2022-09-28T09:27:05.903Z,97794.31
2022-09-28T09:29:54.461Z,97795.75
2022-09-28T09:32:43.989Z,97797.38
2022-09-28T09:35:32.971Z,97792.72
2022-09-28T09:38:48.640Z,97803.28
2022-09-28T09:42:01.351Z,97799.13
2022-09-28T09:45:24.015Z,97796.75
2022-09-28T09:48:18.261Z,97802.19
2022-09-28T09:50:53.775Z,97805.13
2022-09-28T09:53:37.617Z,97808.09
2022-09-28T09:56:17.359Z,97807.44
2022-09-28T09:59:13.868Z,97806.63
2022-09-28T10:02:11.909Z,97813.03
2022-09-28T10:04:53.843Z,97815.59
2022-09-28T10:07:39.366Z,97812.19
2022-09-28T10:10:21.719Z,97813.59
2022-09-28T10:12:51.812Z,97823.75
2022-09-28T10:15:25.194Z,97819.84
2022-09-28T10:18:15.709Z,97820.88
2022-09-28T10:21:05.015Z,97818.59
2022-09-28T10:23:58.469Z,97815.38
2022-09-28T10:26:35.984Z,97817.56
2022-09-28T10:29:11.340Z,97815.13
2022-09-28T10:31:42.438Z,97822.06
2022-09-28T10:34:31.070Z,97826.28
2022-09-28T10:37:10.626Z,97826.25
2022-09-28T10:39:56.473Z,97824.22
2022-09-28T10:42:30.306Z,97825.75
2022-09-28T10:45:04.276Z,97828.44
2022-09-28T10:47:36.848Z,97827.84
2022-09-28T10:50:23.153Z,97815.91
2022-09-28T10:53:12.455Z,97820.44
2022-09-28T10:56:04.620Z,97820.91
2022-09-28T10:58:38.170Z,97817.34
2022-09-28T11:01:12.320Z,97827.25
2022-09-28T11:03:53.524Z,97824.22
2022-09-28T11:06:28.527Z,97817.28
2022-09-28T11:09:00.271Z,97825.63
2022-09-28T11:11:29.131Z,97821.59
2022-09-28T11:14:03.664Z,97816.59
2022-09-28T11:16:36.351Z,97826.91
2022-09-28T11:19:26.569Z,97812.97
2022-09-28T11:21:55.743Z,97818.84
2022-09-28T11:24:30.393Z,97813.75
2022-09-28T11:27:00.734Z,97812.38
2022-09-28T11:29:38.673Z,97825.75
2022-09-28T11:32:23.307Z,97819.09
2022-09-28T11:35:19.293Z,97823.13
2022-09-28T11:38:25.138Z,97812.13
2022-09-28T11:41:23.597Z,97805.19
2022-09-28T11:44:37.094Z,97820.16
2022-09-28T11:47:37.795Z,97808.50
2022-09-28T11:50:24.133Z,97808.69
2022-09-28T11:53:09.097Z,97812.38
2022-09-28T11:55:44.267Z,97803.44
2022-09-28T11:58:22.518Z,97805.88
2022-09-28T12:00:57.348Z,97804.31
2022-09-28T12:03:41.719Z,97803.22
2022-09-28T12:06:16.357Z,97809.59
2022-09-28T12:08:53.577Z,97801.06
2022-09-28T12:11:44.967Z,97800.81
2022-09-28T12:14:31.030Z,97800.16
2022-09-28T12:17:08.803Z,97799.13
2022-09-28T12:19:45.036Z,97802.88
2022-09-28T12:22:22.857Z,97801.44
2022-09-28T12:24:57.249Z,97796.16
2022-09-28T12:27:34.909Z,97793.78
2022-09-28T12:30:14.163Z,97783.00
2022-09-28T12:32:49.621Z,97794.06
2022-09-28T12:35:32.228Z,97793.31
2022-09-28T12:38:35.449Z,97796.13
2022-09-28T12:41:22.377Z,97798.75
2022-09-28T12:44:15.064Z,97785.03
2022-09-28T12:47:21.284Z,97786.19
2022-09-28T12:53:42.251Z,97786.53
2022-09-28T12:56:23.114Z,97798.13
2022-09-28T12:59:14.864Z,97797.50
2022-09-28T13:02:25.600Z,97794.44
2022-09-28T13:05:10.604Z,97792.81
2022-09-28T13:07:53.492Z,97788.22
2022-09-28T13:10:31.239Z,97784.41
2022-09-28T13:13:26.732Z,97791.28
2022-09-28T13:16:03.001Z,97794.69
2022-09-28T13:18:42.359Z,97789.84
2022-09-28T13:21:26.075Z,97796.72
2022-09-28T13:24:09.062Z,97801.19
2022-09-28T13:26:47.745Z,97799.34
2022-09-28T13:29:20.634Z,97788.34
2022-09-28T13:31:56.772Z,97799.13
2022-09-28T13:34:29.090Z,97802.75
2022-09-28T13:37:21.009Z,97797.59
2022-09-28T13:39:50.783Z,97797.22
2022-09-28T13:42:51.670Z,97810.78
2022-09-28T13:45:59.786Z,97811.81
2022-09-28T13:48:46.758Z,97811.84
2022-09-28T13:51:51.995Z,97809.09
2022-09-28T13:54:41.956Z,97809.91
2022-09-28T13:57:21.279Z,97798.16
2022-09-28T14:00:11.829Z,97808.63
2022-09-28T14:02:46.656Z,97807.81
2022-09-28T14:05:44.857Z,97807.41
2022-09-28T14:08:38.741Z,97808.28
2022-09-28T14:11:40.808Z,97799.72
2022-09-28T14:14:48.362Z,97805.97
2022-09-28T14:18:04.968Z,97807.31
2022-09-28T14:20:35.208Z,97813.00
2022-09-28T14:23:55.159Z,97811.19
2022-09-28T14:26:59.371Z,97815.91
2022-09-28T14:29:29.127Z,97825.22
2022-09-28T14:31:57.874Z,97825.50
2022-09-28T14:34:36.461Z,97822.59
2022-09-28T14:37:20.142Z,97827.38
2022-09-28T14:39:48.444Z,97825.56
2022-09-28T14:42:20.293Z,97823.13
2022-09-28T14:45:34.485Z,97813.75
2022-09-28T14:48:19.424Z,97828.47
2022-09-28T14:50:48.550Z,97828.19
2022-09-28T14:53:23.369Z,97835.81
2022-09-28T14:55:55.366Z,97835.06
2022-09-28T14:58:26.144Z,97834.50
2022-09-28T15:01:04.550Z,97836.31
2022-09-28T15:03:37.047Z,97839.38
2022-09-28T15:06:05.781Z,97843.38
2022-09-28T15:08:38.285Z,97842.72
2022-09-28T15:11:13.525Z,97846.63
2022-09-28T15:13:42.699Z,97841.66
2022-09-28T15:16:13.983Z,97843.28
2022-09-28T15:19:19.283Z,97842.22
2022-09-28T15:21:47.595Z,97846.28
2022-09-28T15:24:29.483Z,97850.34
2022-09-28T15:26:56.298Z,97844.00
2022-09-28T15:29:23.678Z,97845.31
2022-09-28T15:31:54.367Z,97833.47
2022-09-28T15:34:34.120Z,97838.88
2022-09-28T15:37:03.637Z,97834.66
2022-09-28T15:39:33.336Z,97844.78
2022-09-28T15:42:01.144Z,97842.16
2022-09-28T15:44:31.110Z,97845.97
2022-09-28T15:47:15.495Z,97844.13
2022-09-28T15:49:54.386Z,97855.47
2022-09-28T15:52:37.509Z,97857.81
2022-09-28T15:55:22.438Z,97858.38
2022-09-28T15:57:50.272Z,97855.31
2022-09-28T16:00:28.150Z,97856.47
2022-09-28T16:03:23.260Z,97861.00
2022-09-28T16:06:06.683Z,97848.69
2022-09-28T16:08:43.439Z,97860.81
2022-09-28T16:11:21.273Z,97856.09
2022-09-28T16:14:02.087Z,97857.47
2022-09-28T16:16:33.319Z,97858.47
2022-09-28T16:19:02.606Z,97857.94
2022-09-28T16:21:44.835Z,97865.81
2022-09-28T16:24:27.426Z,97871.50
2022-09-28T16:26:59.026Z,97865.34
2022-09-28T16:29:34.986Z,97864.88
2022-09-28T16:32:36.689Z,97866.72
2022-09-28T16:35:50.468Z,97858.75
2022-09-28T16:38:19.355Z,97871.13
2022-09-28T16:40:50.740Z,97866.03
2022-09-28T16:43:21.958Z,97864.97
2022-09-28T16:45:49.348Z,97860.59
2022-09-28T16:48:16.453Z,97873.63
2022-09-28T16:50:45.170Z,97868.28
2022-09-28T16:53:15.206Z,97879.13
2022-09-28T16:55:42.745Z,97873.59
2022-09-28T16:58:14.996Z,97877.38
2022-09-28T17:00:54.519Z,97870.41
2022-09-28T17:03:22.123Z,97868.78
2022-09-28T17:05:51.148Z,97878.41
2022-09-28T17:08:20.880Z,97883.56
2022-09-28T17:11:13.002Z,97879.81
2022-09-28T17:13:41.995Z,97880.34
2022-09-28T17:16:13.914Z,97878.75
2022-09-28T17:18:45.417Z,97878.13
2022-09-28T17:21:16.022Z,97878.75
2022-09-28T17:23:43.253Z,97891.22
2022-09-28T17:26:20.284Z,97891.56
2022-09-28T17:28:48.755Z,97892.53
2022-09-28T17:31:21.765Z,97893.88
2022-09-28T17:33:48.856Z,97884.28
2022-09-28T17:36:18.574Z,97901.75
2022-09-28T17:38:47.800Z,97896.22
2022-09-28T17:41:20.718Z,97903.13
2022-09-28T17:43:49.451Z,97895.03
2022-09-28T17:46:27.415Z,97902.59
2022-09-28T17:49:02.887Z,97913.41
2022-09-28T17:51:33.380Z,97907.88
2022-09-28T17:54:01.415Z,97921.13
2022-09-28T17:56:32.129Z,97910.69
2022-09-28T17:59:05.350Z,97911.56
2022-09-28T18:01:34.138Z,97920.88
2022-09-28T18:04:02.379Z,97918.06
2022-09-28T18:06:29.507Z,97929.50
2022-09-28T18:08:56.208Z,97924.75
2022-09-28T18:11:23.263Z,97924.28
2022-09-28T18:13:50.415Z,97920.84
2022-09-28T18:16:18.645Z,97922.97
2022-09-28T18:18:45.975Z,97927.72
2022-09-28T18:21:13.884Z,97923.16
2022-09-28T18:23:41.534Z,97926.91
2022-09-28T18:26:11.457Z,97931.47
2022-09-28T18:28:38.989Z,97937.66
2022-09-28T18:31:08.248Z,97946.81
2022-09-28T18:33:52.478Z,97946.66
2022-09-28T18:36:19.406Z,97946.16
2022-09-28T18:38:46.591Z,97952.69
2022-09-28T18:41:15.998Z,97949.13
2022-09-28T18:43:49.317Z,97953.34
2022-09-28T18:46:20.415Z,97961.00
2022-09-28T18:48:51.946Z,97964.59
2022-09-28T18:51:19.387Z,97968.50
2022-09-28T18:53:48.970Z,97966.22
2022-09-28T18:56:18.202Z,97966.41
2022-09-28T18:58:47.478Z,97970.25
2022-09-28T19:01:32.820Z,97964.28
2022-09-28T19:04:06.837Z,97964.84
2022-09-28T19:06:38.285Z,97975.78
2022-09-28T19:09:05.461Z,97978.25
2022-09-28T19:11:32.636Z,97981.00
2022-09-28T19:13:59.476Z,97976.53
2022-09-28T19:16:29.307Z,97983.53
2022-09-28T19:18:57.492Z,97983.66
2022-09-28T19:21:26.293Z,97994.66
2022-09-28T19:23:53.288Z,97988.59
2022-09-28T19:26:23.718Z,97984.94
2022-09-28T19:28:51.284Z,97989.16
2022-09-28T19:31:19.404Z,97993.88
2022-09-28T19:33:46.889Z,97995.50
2022-09-28T19:36:17.026Z,97989.94
2022-09-28T19:38:45.891Z,97997.94
2022-09-28T19:41:15.584Z,97990.28
2022-09-28T19:43:42.433Z,97996.28
2022-09-28T19:46:09.543Z,97995.16
2022-09-28T19:48:36.630Z,97995.97
2022-09-28T19:51:06.732Z,97994.81
2022-09-28T19:53:36.303Z,98006.06
2022-09-28T19:56:05.869Z,98001.31
2022-09-28T19:58:36.051Z,98004.94
2022-09-28T20:01:05.958Z,98007.41
2022-09-28T20:03:32.952Z,98011.38
2022-09-28T20:06:00.905Z,98011.88
2022-09-28T20:08:28.460Z,98020.63
2022-09-28T20:10:56.419Z,98020.88
2022-09-28T20:13:32.569Z,98025.28
2022-09-28T20:16:04.663Z,98025.44
2022-09-28T20:18:35.122Z,98032.88
2022-09-28T20:21:03.163Z,98028.31
2022-09-28T20:23:31.670Z,98036.38
2022-09-28T20:25:58.953Z,98027.31
2022-09-28T20:28:27.111Z,98028.56
2022-09-28T20:30:54.017Z,98027.34
2022-09-28T20:33:28.705Z,98028.97
2022-09-28T20:35:56.908Z,98020.56
2022-09-28T20:38:23.808Z,98033.91
2022-09-28T20:40:50.634Z,98041.56
2022-09-28T20:43:17.456Z,98036.28
2022-09-28T20:45:45.571Z,98034.94
2022-09-28T20:48:12.501Z,98036.75
2022-09-28T20:50:39.283Z,98039.03
2022-09-28T20:53:06.495Z,98041.19
2022-09-28T20:55:33.674Z,98041.50
2022-09-28T20:58:03.061Z,98043.97
2022-09-28T21:00:30.031Z,98042.09
2022-09-28T21:02:58.234Z,98040.53
2022-09-28T21:05:25.020Z,98037.94
2022-09-28T21:07:51.719Z,98031.44
2022-09-28T21:10:18.591Z,98036.19
2022-09-28T21:12:46.500Z,98034.97
2022-09-28T21:15:13.459Z,98040.06
2022-09-28T21:17:40.500Z,98042.00
2022-09-28T21:20:09.639Z,98039.41
2022-09-28T21:22:36.402Z,98037.34
2022-09-28T21:25:03.907Z,98033.47
2022-09-28T21:27:30.878Z,98040.31
2022-09-28T21:29:57.666Z,98042.59
2022-09-28T21:32:24.704Z,98040.00
2022-09-28T21:34:51.738Z,98032.88
2022-09-28T21:37:20.206Z,98039.72
2022-09-28T21:39:47.001Z,98036.44
2022-09-28T21:42:13.915Z,98037.41
2022-09-28T21:44:40.796Z,98049.88
2022-09-28T21:47:07.597Z,98041.88
2022-09-28T21:49:34.510Z,98031.34
2022-09-28T21:52:01.859Z,98040.13
2022-09-28T21:54:30.003Z,98037.59
2022-09-28T21:56:56.829Z,98036.16
2022-09-28T21:59:23.633Z,98041.09
2022-09-28T22:01:50.375Z,98044.56
2022-09-28T22:04:17.309Z,98040.25
2022-09-28T22:06:44.119Z,98037.47
2022-09-28T22:09:11.067Z,98034.47
2022-09-28T22:11:39.123Z,98037.53
2022-09-28T22:14:06.128Z,98038.72
2022-09-28T22:16:33.061Z,98040.34
2022-09-28T22:18:59.927Z,98037.06
2022-09-28T22:21:29.660Z,98040.66
2022-09-28T22:23:58.860Z,98045.00
2022-09-28T22:26:27.203Z,98042.00
2022-09-28T22:28:57.469Z,98035.97
2022-09-28T22:31:27.524Z,98043.09
2022-09-28T22:33:54.966Z,98036.03
2022-09-28T22:36:22.508Z,98035.50
2022-09-28T22:38:49.841Z,98031.69
2022-09-28T22:41:19.548Z,98034.00
2022-09-28T22:43:48.176Z,98039.47
2022-09-28T22:46:19.307Z,98034.72
2022-09-28T22:48:47.258Z,98035.81
2022-09-28T22:51:14.605Z,98043.72
2022-09-28T22:53:41.458Z,98027.53
2022-09-28T22:56:15.934Z,98038.56
2022-09-28T22:58:45.251Z,98036.13
2022-09-28T23:01:17.857Z,98031.78
2022-09-28T23:03:45.551Z,98038.47
2022-09-28T23:06:15.527Z,98030.31
2022-09-28T23:08:44.018Z,98033.47
2022-09-28T23:11:11.083Z,98033.88
2022-09-28T23:13:37.902Z,98030.44
2022-09-28T23:16:08.211Z,98032.13
2022-09-28T23:18:39.183Z,98042.53
2022-09-28T23:21:09.655Z,98034.78
2022-09-28T23:23:36.531Z,98037.38
2022-09-28T23:26:11.419Z,98040.91
2022-09-28T23:28:38.915Z,98040.09
2022-09-28T23:31:11.996Z,98039.81
2022-09-28T23:33:40.481Z,98035.44
2022-09-28T23:36:08.858Z,98029.16
2022-09-28T23:38:36.433Z,98032.94
2022-09-28T23:41:03.772Z,98034.97
2022-09-28T23:43:30.525Z,98035.38
2022-09-28T23:45:57.523Z,98033.72
2022-09-28T23:48:24.272Z,98038.38
2022-09-28T23:50:52.614Z,98034.44
2022-09-28T23:53:19.532Z,98033.75
2022-09-28T23:55:46.353Z,98030.75
2022-09-28T23:58:13.473Z,98033.88
